sensor_id;sensor_type;location;lat;lon;timestamp;P1;durP1;ratioP1;P2;durP2;ratioP2
39102;SDS011;24847;48.218;16.414;2023-08-20T00:04:50;9.27;;;8.57;;
39102;SDS011;24847;48.218;16.414;2023-08-20T00:09:53;8.82;;;7.80;;
39102;SDS011;24847;48.218;16.414;2023-08-20T00:14:57;8.80;;;8.10;;
39102;SDS011;24847;48.218;16.414;2023-08-20T00:20:05;8.60;;;7.90;;
39102;SDS011;24847;48.218;16.414;2023-08-20T00:25:13;8.82;;;8.13;;
39102;SDS011;24847;48.218;16.414;2023-08-20T00:30:19;8.73;;;7.93;;
39102;SDS011;24847;48.218;16.414;2023-08-20T00:35:21;8.15;;;7.53;;
39102;SDS011;24847;48.218;16.414;2023-08-20T00:40:23;8.48;;;7.78;;
39102;SDS011;24847;48.218;16.414;2023-08-20T00:45:27;8.43;;;7.72;;
39102;SDS011;24847;48.218;16.414;2023-08-20T00:50:29;9.02;;;8.32;;
39102;SDS011;24847;48.218;16.414;2023-08-20T00:55:31;8.85;;;8.05;;
39102;SDS011;24847;48.218;16.414;2023-08-20T01:00:35;8.77;;;8.05;;
39102;SDS011;24847;48.218;16.414;2023-08-20T01:05:39;8.82;;;7.97;;
39102;SDS011;24847;48.218;16.414;2023-08-20T01:10:52;8.70;;;8.00;;
39102;SDS011;24847;48.218;16.414;2023-08-20T01:16:00;8.55;;;7.90;;
39102;SDS011;24847;48.218;16.414;2023-08-20T01:21:04;8.93;;;8.18;;
39102;SDS011;24847;48.218;16.414;2023-08-20T01:26:24;9.10;;;8.20;;
39102;SDS011;24847;48.218;16.414;2023-08-20T01:31:41;8.10;;;7.43;;
39102;SDS011;24847;48.218;16.414;2023-08-20T01:36:45;8.43;;;7.72;;
39102;SDS011;24847;48.218;16.414;2023-08-20T01:41:47;7.75;;;7.07;;
39102;SDS011;24847;48.218;16.414;2023-08-20T01:46:51;8.40;;;7.70;;
39102;SDS011;24847;48.218;16.414;2023-08-20T01:51:53;8.30;;;7.70;;
39102;SDS011;24847;48.218;16.414;2023-08-20T01:56:56;8.30;;;7.60;;
39102;SDS011;24847;48.218;16.414;2023-08-20T02:01:59;8.02;;;7.40;;
39102;SDS011;24847;48.218;16.414;2023-08-20T02:07:02;7.88;;;7.18;;
39102;SDS011;24847;48.218;16.414;2023-08-20T02:12:05;7.60;;;6.88;;
39102;SDS011;24847;48.218;16.414;2023-08-20T02:17:09;8.10;;;7.40;;
39102;SDS011;24847;48.218;16.414;2023-08-20T02:22:13;7.15;;;6.57;;
39102;SDS011;24847;48.218;16.414;2023-08-20T02:27:15;7.20;;;6.60;;
39102;SDS011;24847;48.218;16.414;2023-08-20T02:32:19;8.13;;;7.38;;
39102;SDS011;24847;48.218;16.414;2023-08-20T02:37:21;8.48;;;7.78;;
39102;SDS011;24847;48.218;16.414;2023-08-20T02:42:24;23.55;;;21.38;;
39102;SDS011;24847;48.218;16.414;2023-08-20T02:47:27;11.98;;;10.98;;
39102;SDS011;24847;48.218;16.414;2023-08-20T02:52:29;9.57;;;8.77;;
39102;SDS011;24847;48.218;16.414;2023-08-20T02:57:32;9.40;;;8.52;;
39102;SDS011;24847;48.218;16.414;2023-08-20T03:02:35;8.70;;;8.00;;
39102;SDS011;24847;48.218;16.414;2023-08-20T03:07:37;8.93;;;8.23;;
39102;SDS011;24847;48.218;16.414;2023-08-20T03:12:40;7.25;;;6.60;;
39102;SDS011;24847;48.218;16.414;2023-08-20T03:17:43;7.03;;;6.43;;
39102;SDS011;24847;48.218;16.414;2023-08-20T03:22:46;8.20;;;7.50;;
39102;SDS011;24847;48.218;16.414;2023-08-20T03:27:49;8.63;;;7.93;;
39102;SDS011;24847;48.218;16.414;2023-08-20T03:32:52;8.68;;;8.02;;
39102;SDS011;24847;48.218;16.414;2023-08-20T03:37:55;8.35;;;7.75;;
39102;SDS011;24847;48.218;16.414;2023-08-20T03:42:57;8.82;;;8.02;;
39102;SDS011;24847;48.218;16.414;2023-08-20T03:48:00;8.75;;;8.05;;
39102;SDS011;24847;48.218;16.414;2023-08-20T03:53:03;8.55;;;7.93;;
39102;SDS011;24847;48.218;16.414;2023-08-20T03:58:05;9.05;;;8.35;;
39102;SDS011;24847;48.218;16.414;2023-08-20T04:03:09;9.15;;;8.35;;
39102;SDS011;24847;48.218;16.414;2023-08-20T04:08:12;9.98;;;9.18;;
39102;SDS011;24847;48.218;16.414;2023-08-20T04:13:14;10.20;;;9.43;;
39102;SDS011;24847;48.218;16.414;2023-08-20T04:18:17;10.52;;;9.63;;
39102;SDS011;24847;48.218;16.414;2023-08-20T04:23:20;10.05;;;9.20;;
39102;SDS011;24847;48.218;16.414;2023-08-20T04:28:22;10.40;;;9.50;;
39102;SDS011;24847;48.218;16.414;2023-08-20T04:33:26;9.45;;;8.65;;
39102;SDS011;24847;48.218;16.414;2023-08-20T04:38:28;8.98;;;8.18;;
39102;SDS011;24847;48.218;16.414;2023-08-20T04:43:30;9.25;;;8.45;;
39102;SDS011;24847;48.218;16.414;2023-08-20T04:48:33;9.00;;;8.20;;
39102;SDS011;24847;48.218;16.414;2023-08-20T04:53:36;9.15;;;8.35;;
39102;SDS011;24847;48.218;16.414;2023-08-20T04:58:38;9.15;;;8.43;;
39102;SDS011;24847;48.218;16.414;2023-08-20T05:03:42;8.93;;;8.15;;
39102;SDS011;24847;48.218;16.414;2023-08-20T05:08:44;8.98;;;8.18;;
39102;SDS011;24847;48.218;16.414;2023-08-20T05:13:47;9.27;;;8.48;;
39102;SDS011;24847;48.218;16.414;2023-08-20T05:18:52;8.48;;;7.78;;
39102;SDS011;24847;48.218;16.414;2023-08-20T05:23:54;9.25;;;8.45;;
39102;SDS011;24847;48.218;16.414;2023-08-20T05:28:56;9.27;;;8.48;;
39102;SDS011;24847;48.218;16.414;2023-08-20T05:34:00;10.07;;;9.18;;
39102;SDS011;24847;48.218;16.414;2023-08-20T05:39:02;8.95;;;8.15;;
39102;SDS011;24847;48.218;16.414;2023-08-20T05:44:05;9.85;;;9.10;;
39102;SDS011;24847;48.218;16.414;2023-08-20T05:49:09;10.10;;;9.20;;
39102;SDS011;24847;48.218;16.414;2023-08-20T05:54:11;9.57;;;8.88;;
39102;SDS011;24847;48.218;16.414;2023-08-20T05:59:13;9.65;;;8.95;;
39102;SDS011;24847;48.218;16.414;2023-08-20T06:04:16;9.82;;;9.05;;
39102;SDS011;24847;48.218;16.414;2023-08-20T06:09:19;10.05;;;9.23;;
39102;SDS011;24847;48.218;16.414;2023-08-20T06:14:21;10.90;;;9.95;;
39102;SDS011;24847;48.218;16.414;2023-08-20T06:19:25;10.88;;;9.98;;
39102;SDS011;24847;48.218;16.414;2023-08-20T06:24:28;12.40;;;11.40;;
39102;SDS011;24847;48.218;16.414;2023-08-20T06:29:30;11.82;;;10.82;;
39102;SDS011;24847;48.218;16.414;2023-08-20T06:34:34;10.93;;;10.02;;
39102;SDS011;24847;48.218;16.414;2023-08-20T06:39:37;11.88;;;10.55;;
39102;SDS011;24847;48.218;16.414;2023-08-20T06:44:39;11.43;;;10.50;;
39102;SDS011;24847;48.218;16.414;2023-08-20T06:49:42;11.02;;;10.13;;
39102;SDS011;24847;48.218;16.414;2023-08-20T06:54:45;10.63;;;9.73;;
39102;SDS011;24847;48.218;16.414;2023-08-20T06:59:47;10.48;;;9.68;;
39102;SDS011;24847;48.218;16.414;2023-08-20T07:04:50;10.63;;;9.70;;
39102;SDS011;24847;48.218;16.414;2023-08-20T07:09:52;8.90;;;8.20;;
39102;SDS011;24847;48.218;16.414;2023-08-20T07:14:55;9.82;;;9.13;;
39102;SDS011;24847;48.218;16.414;2023-08-20T07:19:58;9.48;;;8.75;;
39102;SDS011;24847;48.218;16.414;2023-08-20T07:25:01;8.68;;;7.97;;
39102;SDS011;24847;48.218;16.414;2023-08-20T07:30:03;9.82;;;8.93;;
39102;SDS011;24847;48.218;16.414;2023-08-20T07:35:08;8.85;;;8.25;;
39102;SDS011;24847;48.218;16.414;2023-08-20T07:40:11;9.35;;;8.65;;
39102;SDS011;24847;48.218;16.414;2023-08-20T07:45:14;8.32;;;7.72;;
39102;SDS011;24847;48.218;16.414;2023-08-20T07:50:17;7.97;;;7.38;;
39102;SDS011;24847;48.218;16.414;2023-08-20T07:55:20;8.23;;;7.63;;
39102;SDS011;24847;48.218;16.414;2023-08-20T08:00:22;8.15;;;7.50;;
39102;SDS011;24847;48.218;16.414;2023-08-20T08:05:26;7.72;;;7.13;;
39102;SDS011;24847;48.218;16.414;2023-08-20T08:10:29;8.73;;;7.97;;
39102;SDS011;24847;48.218;16.414;2023-08-20T08:15:31;8.13;;;7.43;;
39102;SDS011;24847;48.218;16.414;2023-08-20T08:20:34;6.15;;;5.75;;
39102;SDS011;24847;48.218;16.414;2023-08-20T08:25:37;7.63;;;7.05;;
39102;SDS011;24847;48.218;16.414;2023-08-20T08:30:39;7.30;;;6.80;;
39102;SDS011;24847;48.218;16.414;2023-08-20T08:35:43;7.75;;;7.18;;
39102;SDS011;24847;48.218;16.414;2023-08-20T08:40:45;8.65;;;7.72;;
39102;SDS011;24847;48.218;16.414;2023-08-20T08:45:50;7.78;;;7.18;;
39102;SDS011;24847;48.218;16.414;2023-08-20T08:50:55;8.93;;;8.32;;
39102;SDS011;24847;48.218;16.414;2023-08-20T08:55:57;6.22;;;5.82;;
39102;SDS011;24847;48.218;16.414;2023-08-20T09:01:00;8.13;;;7.53;;
39102;SDS011;24847;48.218;16.414;2023-08-20T09:06:07;7.45;;;6.93;;
39102;SDS011;24847;48.218;16.414;2023-08-20T09:11:10;8.13;;;7.53;;
39102;SDS011;24847;48.218;16.414;2023-08-20T09:16:13;7.78;;;7.18;;
39102;SDS011;24847;48.218;16.414;2023-08-20T09:21:16;7.10;;;6.60;;
39102;SDS011;24847;48.218;16.414;2023-08-20T09:26:18;7.65;;;7.05;;
39102;SDS011;24847;48.218;16.414;2023-08-20T09:31:21;8.15;;;7.55;;
39102;SDS011;24847;48.218;16.414;2023-08-20T09:36:40;7.88;;;7.28;;
39102;SDS011;24847;48.218;16.414;2023-08-20T09:41:44;7.15;;;6.65;;
39102;SDS011;24847;48.218;16.414;2023-08-20T09:46:50;7.93;;;7.38;;
39102;SDS011;24847;48.218;16.414;2023-08-20T09:51:54;7.45;;;6.85;;
39102;SDS011;24847;48.218;16.414;2023-08-20T09:57:00;7.63;;;7.03;;
39102;SDS011;24847;48.218;16.414;2023-08-20T10:02:09;8.10;;;7.55;;
39102;SDS011;24847;48.218;16.414;2023-08-20T10:07:15;6.95;;;6.45;;
39102;SDS011;24847;48.218;16.414;2023-08-20T10:12:18;7.20;;;6.70;;
39102;SDS011;24847;48.218;16.414;2023-08-20T10:17:22;7.00;;;6.50;;
39102;SDS011;24847;48.218;16.414;2023-08-20T10:22:33;6.50;;;6.00;;
39102;SDS011;24847;48.218;16.414;2023-08-20T10:27:38;6.57;;;5.95;;
39102;SDS011;24847;48.218;16.414;2023-08-20T10:32:46;6.65;;;6.10;;
39102;SDS011;24847;48.218;16.414;2023-08-20T10:43:28;6.00;;;5.60;;
39102;SDS011;24847;48.218;16.414;2023-08-20T10:48:31;5.88;;;5.47;;
39102;SDS011;24847;48.218;16.414;2023-08-20T10:53:36;5.68;;;5.28;;
39102;SDS011;24847;48.218;16.414;2023-08-20T10:58:44;5.47;;;5.07;;
39102;SDS011;24847;48.218;16.414;2023-08-20T11:03:48;5.75;;;5.30;;
39102;SDS011;24847;48.218;16.414;2023-08-20T11:08:53;4.97;;;4.57;;
39102;SDS011;24847;48.218;16.414;2023-08-20T11:13:56;4.70;;;4.40;;
39102;SDS011;24847;48.218;16.414;2023-08-20T11:19:06;4.20;;;3.90;;
39102;SDS011;24847;48.218;16.414;2023-08-20T11:24:10;4.70;;;4.25;;
39102;SDS011;24847;48.218;16.414;2023-08-20T11:29:15;3.85;;;3.58;;
39102;SDS011;24847;48.218;16.414;2023-08-20T11:34:20;4.32;;;4.03;;
39102;SDS011;24847;48.218;16.414;2023-08-20T11:39:24;3.92;;;3.53;;
39102;SDS011;24847;48.218;16.414;2023-08-20T11:44:26;3.47;;;3.28;;
39102;SDS011;24847;48.218;16.414;2023-08-20T11:49:28;4.22;;;3.92;;
39102;SDS011;24847;48.218;16.414;2023-08-20T11:54:32;4.35;;;4.05;;
39102;SDS011;24847;48.218;16.414;2023-08-20T11:59:34;4.63;;;4.28;;
39102;SDS011;24847;48.218;16.414;2023-08-20T12:04:37;5.22;;;4.05;;
39102;SDS011;24847;48.218;16.414;2023-08-20T12:09:41;4.60;;;4.20;;
39102;SDS011;24847;48.218;16.414;2023-08-20T12:14:43;4.35;;;4.05;;
39102;SDS011;24847;48.218;16.414;2023-08-20T12:19:45;4.03;;;3.72;;
39102;SDS011;24847;48.218;16.414;2023-08-20T12:24:49;4.65;;;4.35;;
39102;SDS011;24847;48.218;16.414;2023-08-20T12:29:52;4.30;;;4.00;;
39102;SDS011;24847;48.218;16.414;2023-08-20T12:34:54;4.45;;;4.07;;
39102;SDS011;24847;48.218;16.414;2023-08-20T12:39:58;4.00;;;3.70;;
39102;SDS011;24847;48.218;16.414;2023-08-20T12:45:00;4.25;;;3.95;;
39102;SDS011;24847;48.218;16.414;2023-08-20T12:50:03;4.03;;;3.72;;
39102;SDS011;24847;48.218;16.414;2023-08-20T12:55:09;3.40;;;3.20;;
39102;SDS011;24847;48.218;16.414;2023-08-20T13:00:11;3.97;;;3.67;;
39102;SDS011;24847;48.218;16.414;2023-08-20T13:05:15;3.65;;;3.45;;
39102;SDS011;24847;48.218;16.414;2023-08-20T13:10:21;4.50;;;4.13;;
39102;SDS011;24847;48.218;16.414;2023-08-20T13:15:27;4.78;;;4.38;;
39102;SDS011;24847;48.218;16.414;2023-08-20T13:20:32;4.68;;;4.28;;
39102;SDS011;24847;48.218;16.414;2023-08-20T13:25:38;4.32;;;3.92;;
39102;SDS011;24847;48.218;16.414;2023-08-20T13:30:41;4.18;;;3.88;;
39102;SDS011;24847;48.218;16.414;2023-08-20T13:35:45;4.22;;;3.92;;
39102;SDS011;24847;48.218;16.414;2023-08-20T13:40:49;3.60;;;3.38;;
39102;SDS011;24847;48.218;16.414;2023-08-20T13:45:51;4.15;;;3.85;;
39102;SDS011;24847;48.218;16.414;2023-08-20T13:50:54;4.15;;;3.85;;
39102;SDS011;24847;48.218;16.414;2023-08-20T13:55:58;5.07;;;4.47;;
39102;SDS011;24847;48.218;16.414;2023-08-20T14:01:02;3.90;;;3.60;;
39102;SDS011;24847;48.218;16.414;2023-08-20T14:06:07;4.38;;;4.00;;
39102;SDS011;24847;48.218;16.414;2023-08-20T14:11:11;3.80;;;3.50;;
39102;SDS011;24847;48.218;16.414;2023-08-20T14:16:14;4.03;;;3.78;;
39102;SDS011;24847;48.218;16.414;2023-08-20T14:21:18;3.88;;;3.58;;
39102;SDS011;24847;48.218;16.414;2023-08-20T14:26:22;3.63;;;3.33;;
39102;SDS011;24847;48.218;16.414;2023-08-20T14:31:25;3.92;;;3.63;;
39102;SDS011;24847;48.218;16.414;2023-08-20T14:36:29;3.70;;;3.35;;
39102;SDS011;24847;48.218;16.414;2023-08-20T14:41:34;3.00;;;2.80;;
39102;SDS011;24847;48.218;16.414;2023-08-20T14:46:37;3.60;;;2.80;;
39102;SDS011;24847;48.218;16.414;2023-08-20T14:51:39;2.80;;;2.60;;
39102;SDS011;24847;48.218;16.414;2023-08-20T14:56:44;3.10;;;2.80;;
39102;SDS011;24847;48.218;16.414;2023-08-20T15:01:47;2.70;;;2.45;;
39102;SDS011;24847;48.218;16.414;2023-08-20T15:06:50;2.85;;;2.58;;
39102;SDS011;24847;48.218;16.414;2023-08-20T15:11:53;3.00;;;2.70;;
39102;SDS011;24847;48.218;16.414;2023-08-20T15:16:56;4.35;;;3.00;;
39102;SDS011;24847;48.218;16.414;2023-08-20T15:21:59;3.85;;;2.83;;
39102;SDS011;24847;48.218;16.414;2023-08-20T15:27:05;3.85;;;3.28;;
39102;SDS011;24847;48.218;16.414;2023-08-20T15:32:07;3.42;;;3.22;;
39102;SDS011;24847;48.218;16.414;2023-08-20T15:37:12;3.92;;;3.55;;
39102;SDS011;24847;48.218;16.414;2023-08-20T15:42:18;3.92;;;3.63;;
39102;SDS011;24847;48.218;16.414;2023-08-20T15:47:21;3.60;;;3.33;;
39102;SDS011;24847;48.218;16.414;2023-08-20T15:52:25;4.45;;;4.10;;
39102;SDS011;24847;48.218;16.414;2023-08-20T15:57:28;4.53;;;4.13;;
39102;SDS011;24847;48.218;16.414;2023-08-20T16:02:31;3.60;;;3.30;;
39102;SDS011;24847;48.218;16.414;2023-08-20T16:07:34;3.30;;;3.00;;
39102;SDS011;24847;48.218;16.414;2023-08-20T16:12:39;3.75;;;3.35;;
39102;SDS011;24847;48.218;16.414;2023-08-20T16:17:42;4.22;;;3.83;;
39102;SDS011;24847;48.218;16.414;2023-08-20T16:22:45;4.32;;;3.95;;
39102;SDS011;24847;48.218;16.414;2023-08-20T16:27:49;3.80;;;3.50;;
39102;SDS011;24847;48.218;16.414;2023-08-20T16:32:51;4.20;;;3.65;;
39102;SDS011;24847;48.218;16.414;2023-08-20T16:37:54;4.28;;;3.72;;
39102;SDS011;24847;48.218;16.414;2023-08-20T16:42:58;5.82;;;5.28;;
39102;SDS011;24847;48.218;16.414;2023-08-20T16:48:02;3.97;;;3.63;;
39102;SDS011;24847;48.218;16.414;2023-08-20T16:53:06;3.95;;;3.55;;
39102;SDS011;24847;48.218;16.414;2023-08-20T16:58:11;3.20;;;3.00;;
39102;SDS011;24847;48.218;16.414;2023-08-20T17:03:14;3.17;;;2.97;;
39102;SDS011;24847;48.218;16.414;2023-08-20T17:08:18;4.90;;;3.63;;
39102;SDS011;24847;48.218;16.414;2023-08-20T17:13:23;3.42;;;3.20;;
39102;SDS011;24847;48.218;16.414;2023-08-20T17:18:26;3.55;;;3.25;;
39102;SDS011;24847;48.218;16.414;2023-08-20T17:23:30;6.45;;;4.03;;
39102;SDS011;24847;48.218;16.414;2023-08-20T17:28:34;4.30;;;3.90;;
39102;SDS011;24847;48.218;16.414;2023-08-20T17:33:37;4.43;;;4.03;;
39102;SDS011;24847;48.218;16.414;2023-08-20T17:38:42;5.30;;;4.80;;
39102;SDS011;24847;48.218;16.414;2023-08-20T17:43:47;5.32;;;4.93;;
39102;SDS011;24847;48.218;16.414;2023-08-20T17:48:51;5.90;;;4.40;;
39102;SDS011;24847;48.218;16.414;2023-08-20T17:53:55;4.38;;;3.97;;
39102;SDS011;24847;48.218;16.414;2023-08-20T17:59:05;6.05;;;4.30;;
39102;SDS011;24847;48.218;16.414;2023-08-20T18:04:09;4.00;;;3.70;;
39102;SDS011;24847;48.218;16.414;2023-08-20T18:09:13;4.68;;;4.10;;
39102;SDS011;24847;48.218;16.414;2023-08-20T18:14:18;4.68;;;4.28;;
39102;SDS011;24847;48.218;16.414;2023-08-20T18:19:21;5.47;;;4.97;;
39102;SDS011;24847;48.218;16.414;2023-08-20T18:24:28;6.82;;;6.15;;
39102;SDS011;24847;48.218;16.414;2023-08-20T18:29:33;6.53;;;5.63;;
39102;SDS011;24847;48.218;16.414;2023-08-20T18:34:36;8.95;;;6.03;;
39102;SDS011;24847;48.218;16.414;2023-08-20T18:39:39;6.88;;;6.13;;
39102;SDS011;24847;48.218;16.414;2023-08-20T18:44:44;6.93;;;6.32;;
39102;SDS011;24847;48.218;16.414;2023-08-20T18:49:48;7.78;;;7.07;;
39102;SDS011;24847;48.218;16.414;2023-08-20T18:54:52;10.95;;;9.88;;
39102;SDS011;24847;48.218;16.414;2023-08-20T18:59:57;8.52;;;7.70;;
39102;SDS011;24847;48.218;16.414;2023-08-20T19:05:01;7.38;;;6.68;;
39102;SDS011;24847;48.218;16.414;2023-08-20T19:10:07;7.25;;;6.60;;
39102;SDS011;24847;48.218;16.414;2023-08-20T19:15:13;5.97;;;5.47;;
39102;SDS011;24847;48.218;16.414;2023-08-20T19:20:20;6.68;;;6.07;;
39102;SDS011;24847;48.218;16.414;2023-08-20T19:25:26;7.30;;;6.63;;
39102;SDS011;24847;48.218;16.414;2023-08-20T19:30:35;6.93;;;6.32;;
39102;SDS011;24847;48.218;16.414;2023-08-20T19:35:47;6.93;;;6.28;;
39102;SDS011;24847;48.218;16.414;2023-08-20T19:40:50;6.82;;;6.22;;
39102;SDS011;24847;48.218;16.414;2023-08-20T19:45:58;6.95;;;6.28;;
39102;SDS011;24847;48.218;16.414;2023-08-20T19:51:01;7.68;;;6.20;;
39102;SDS011;24847;48.218;16.414;2023-08-20T19:56:06;6.50;;;5.97;;
39102;SDS011;24847;48.218;16.414;2023-08-20T20:01:11;5.97;;;5.50;;
39102;SDS011;24847;48.218;16.414;2023-08-20T20:06:16;6.55;;;5.97;;
39102;SDS011;24847;48.218;16.414;2023-08-20T20:11:18;6.82;;;6.22;;
39102;SDS011;24847;48.218;16.414;2023-08-20T20:16:23;6.95;;;6.32;;
39102;SDS011;24847;48.218;16.414;2023-08-20T20:21:27;7.32;;;6.57;;
39102;SDS011;24847;48.218;16.414;2023-08-20T20:26:31;9.23;;;7.68;;
39102;SDS011;24847;48.218;16.414;2023-08-20T20:31:38;6.78;;;6.18;;
39102;SDS011;24847;48.218;16.414;2023-08-20T20:36:42;7.85;;;7.05;;
39102;SDS011;24847;48.218;16.414;2023-08-20T20:41:45;7.10;;;6.45;;
39102;SDS011;24847;48.218;16.414;2023-08-20T20:46:50;7.93;;;7.13;;
39102;SDS011;24847;48.218;16.414;2023-08-20T20:52:05;8.38;;;7.57;;
39102;SDS011;24847;48.218;16.414;2023-08-20T20:57:09;8.02;;;7.28;;
39102;SDS011;24847;48.218;16.414;2023-08-20T21:02:14;7.32;;;6.63;;
39102;SDS011;24847;48.218;16.414;2023-08-20T21:07:17;7.82;;;6.97;;
39102;SDS011;24847;48.218;16.414;2023-08-20T21:12:19;8.52;;;7.10;;
39102;SDS011;24847;48.218;16.414;2023-08-20T21:17:23;8.35;;;6.97;;
39102;SDS011;24847;48.218;16.414;2023-08-20T21:22:25;10.07;;;9.15;;
39102;SDS011;24847;48.218;16.414;2023-08-20T21:27:28;8.52;;;7.82;;
39102;SDS011;24847;48.218;16.414;2023-08-20T21:32:31;8.40;;;7.30;;
39102;SDS011;24847;48.218;16.414;2023-08-20T21:37:33;6.75;;;6.15;;
39102;SDS011;24847;48.218;16.414;2023-08-20T21:42:36;8.27;;;7.47;;
39102;SDS011;24847;48.218;16.414;2023-08-20T21:47:39;8.10;;;7.35;;
39102;SDS011;24847;48.218;16.414;2023-08-20T21:52:47;7.22;;;6.60;;
39102;SDS011;24847;48.218;16.414;2023-08-20T21:57:50;7.80;;;6.97;;
39102;SDS011;24847;48.218;16.414;2023-08-20T22:02:54;8.10;;;7.40;;
39102;SDS011;24847;48.218;16.414;2023-08-20T22:07:56;9.18;;;8.27;;
39102;SDS011;24847;48.218;16.414;2023-08-20T22:12:59;7.68;;;6.95;;
39102;SDS011;24847;48.218;16.414;2023-08-20T22:18:02;6.35;;;5.85;;
39102;SDS011;24847;48.218;16.414;2023-08-20T22:23:07;7.18;;;6.45;;
39102;SDS011;24847;48.218;16.414;2023-08-20T22:28:10;6.90;;;6.30;;
39102;SDS011;24847;48.218;16.414;2023-08-20T22:33:14;7.45;;;6.85;;
39102;SDS011;24847;48.218;16.414;2023-08-20T22:38:16;7.88;;;7.18;;
39102;SDS011;24847;48.218;16.414;2023-08-20T22:43:19;7.30;;;6.60;;
39102;SDS011;24847;48.218;16.414;2023-08-20T22:48:22;7.13;;;6.53;;
39102;SDS011;24847;48.218;16.414;2023-08-20T22:53:25;6.93;;;6.32;;
39102;SDS011;24847;48.218;16.414;2023-08-20T22:58:27;7.07;;;6.38;;
39102;SDS011;24847;48.218;16.414;2023-08-20T23:03:31;7.75;;;6.50;;
39102;SDS011;24847;48.218;16.414;2023-08-20T23:08:33;6.88;;;6.20;;
39102;SDS011;24847;48.218;16.414;2023-08-20T23:13:35;6.93;;;6.35;;
39102;SDS011;24847;48.218;16.414;2023-08-20T23:18:38;7.63;;;6.90;;
39102;SDS011;24847;48.218;16.414;2023-08-20T23:23:41;7.00;;;6.38;;
39102;SDS011;24847;48.218;16.414;2023-08-20T23:28:43;6.28;;;5.68;;
39102;SDS011;24847;48.218;16.414;2023-08-20T23:33:47;6.78;;;6.15;;
39102;SDS011;24847;48.218;16.414;2023-08-20T23:38:50;6.60;;;6.10;;
39102;SDS011;24847;48.218;16.414;2023-08-20T23:43:52;7.30;;;6.45;;
39102;SDS011;24847;48.218;16.414;2023-08-20T23:48:56;7.85;;;5.97;;
39102;SDS011;24847;48.218;16.414;2023-08-20T23:53:58;6.65;;;6.10;;
39102;SDS011;24847;48.218;16.414;2023-08-20T23:59:01;6.32;;;5.82;;
